METAR AND TAF INFORMATION
METAR FOR EDJA
ADDS - METARS form results

(2103 UTC 18 April 2019)
Data provider http://aviationweather.gov/metar/data/
 
Forecast for: EDJA (MEMMINGEN ALLGAU, DE)
Text: TAF EDJA 181700Z 1818/1903 06010KT CAVOK
Forecast period: 1800 UTC 18 April 2019 to 0300 UTC 19 April 2019
Forecast type: FROM: standard forecast or significant change
Winds: from the ENE (60 degrees) at 12 MPH (10 knots; 5.1 m/s)
Visibility: 6 or more miles 10+ km)
Ceiling: unknown
Clouds: missing
Weather: NSW  (no significant weather)
Text: BECMG 1818/1820 06005KT
Forecast period: 1800 UTC 18 April 2019 to 0300 UTC 19 April 2019
Forecast type: BECOMING: Conditions expected to become as follows by 2000 UTC 18 April 2019
Winds: from the ENE (60 degrees) at 6 MPH (5 knots; 2.6 m/s)
Visibility: 6 or more miles 10+ km)
Ceiling: unknown
Clouds: missing
Weather: NSW  (no significant weather)

 AIRPORT MAP

 RUNWAY INFORMATION
Runway 06 Runway length 9780 ft Runway width 98 ft
Runway elevation 2077 ft Runway displaced threshold 953 ft Runway heading 59
Runway 24 Runway length 9780 ft Runway width 98 ft
Runway elevation 2077 ft Runway displaced threshold 953 ft Runway heading 239

 AIRPORT FREQUENCIES
Type AFIS Name MUNCHEN IN Frequency 126.95 MHZ
Type INFO Name INFO Frequency 135.6 MHZ

 AIRPORT NEAR NAVIGATION AIDS



Powered by Virtual Airlines Manager [v2.6.2]

Impressum | Datenschutz